Time;durP1;ratioP1;P1;durP2;ratioP2;P2;SDS_P1;SDS_P2;PMS_P1;PMS_P2;Temp;Humidity;BMP_temperature;BMP_pressure;BME280_temperature;BME280_humidity;BME280_pressure;Samples;Min_cycle;Max_cycle;Signal;HPM_P1;HPM_P2
2022/03/02 00:00:14;;;;;;;18.97;13.93;;;3.00;99.90;;;;;;5117028;28;20165;-63
2022/03/02 00:02:42;;;;;;;20.57;13.07;;;3.00;99.90;;;;;;5116834;28;20172;-63
2022/03/02 00:05:08;;;;;;;19.57;13.53;;;3.20;99.90;;;;;;5117210;28;20196;-63
2022/03/02 00:07:33;;;;;;;21.97;14.27;;;3.10;99.90;;;;;;5116819;28;20173;-64
2022/03/02 00:09:59;;;;;;;23.33;14.47;;;3.10;99.90;;;;;;5116779;28;20176;-64
2022/03/02 00:12:25;;;;;;;23.07;15.37;;;3.10;99.90;;;;;;5116672;28;20184;-64
2022/03/02 00:14:50;;;;;;;23.53;15.20;;;3.10;99.90;;;;;;5115478;28;20192;-63
2022/03/02 00:17:16;;;;;;;23.03;16.00;;;3.00;99.90;;;;;;5116633;28;20165;-64
2022/03/02 00:19:42;;;;;;;19.73;14.40;;;3.00;99.90;;;;;;5116867;28;20256;-64
2022/03/02 00:22:09;;;;;;;20.33;14.17;;;2.90;99.90;;;;;;5116471;28;20260;-64
2022/03/02 00:24:35;;;;;;;21.03;13.07;;;2.80;99.90;;;;;;5116686;28;20196;-64
2022/03/02 00:27:00;;;;;;;21.77;14.90;;;2.80;99.90;;;;;;5116426;28;20178;-63
2022/03/02 00:29:26;;;;;;;17.57;13.20;;;2.80;99.90;;;;;;5116594;28;20204;-64
2022/03/02 00:31:52;;;;;;;21.77;13.87;;;2.90;99.90;;;;;;5116380;28;20232;-64
2022/03/02 00:34:18;;;;;;;18.50;13.13;;;2.90;99.90;;;;;;5116209;28;20253;-63
2022/03/02 00:36:44;;;;;;;23.47;14.67;;;2.90;99.90;;;;;;5116281;27;20160;-64
2022/03/02 00:39:10;;;;;;;24.13;15.53;;;2.80;99.90;;;;;;5115433;28;20628;-63
2022/03/02 00:41:35;;;;;;;29.63;17.70;;;2.80;99.90;;;;;;5116382;28;20256;-64
2022/03/02 00:44:02;;;;;;;31.67;19.00;;;2.80;99.90;;;;;;5116359;28;20192;-63
2022/03/02 00:46:29;;;;;;;28.70;18.27;;;2.80;99.90;;;;;;5116028;28;20637;-63
2022/03/02 00:49:00;;;;;;;26.93;16.67;;;2.70;99.90;;;;;;5116125;28;20181;-63
2022/03/02 00:51:26;;;;;;;28.37;15.90;;;2.70;99.90;;;;;;5115924;28;20196;-64
2022/03/02 00:53:53;;;;;;;22.50;15.43;;;2.70;99.90;;;;;;5116181;28;20204;-64
2022/03/02 00:56:21;;;;;;;24.57;14.87;;;2.60;99.90;;;;;;5114677;28;20548;-63
2022/03/02 00:58:47;;;;;;;23.07;14.83;;;2.70;99.90;;;;;;5114662;28;20566;-63
2022/03/02 01:01:13;;;;;;;22.30;14.53;;;2.70;99.90;;;;;;5116485;28;20204;-64
2022/03/02 01:03:39;;;;;;;21.27;13.97;;;2.60;99.90;;;;;;5116132;28;20192;-63
2022/03/02 01:06:05;;;;;;;22.17;14.77;;;2.60;99.90;;;;;;5116000;28;20259;-64
2022/03/02 01:08:32;;;;;;;18.67;13.83;;;2.60;99.90;;;;;;5116019;28;20152;-64
2022/03/02 01:10:58;;;;;;;19.57;13.30;;;2.60;99.90;;;;;;5115780;28;20171;-64
2022/03/02 01:13:24;;;;;;;20.27;13.73;;;2.70;99.90;;;;;;5114236;28;20294;-64
2022/03/02 01:15:49;;;;;;;18.20;13.03;;;2.70;99.90;;;;;;5116108;28;20259;-63
2022/03/02 01:18:15;;;;;;;21.10;13.57;;;2.70;99.90;;;;;;5116236;28;20174;-63
2022/03/02 01:20:41;;;;;;;19.30;13.17;;;2.80;99.90;;;;;;5116087;28;20256;-64
2022/03/02 01:23:07;;;;;;;15.53;13.07;;;2.70;99.90;;;;;;5115891;27;20195;-63
2022/03/02 01:25:33;;;;;;;18.00;13.53;;;2.70;99.90;;;;;;5115286;28;20173;-63
2022/03/02 01:27:58;;;;;;;17.80;12.87;;;2.70;99.90;;;;;;5115876;28;20507;-63
2022/03/02 01:30:24;;;;;;;17.93;13.00;;;2.70;99.90;;;;;;5115055;28;20282;-64
2022/03/02 01:32:50;;;;;;;18.83;12.90;;;2.70;99.90;;;;;;5113829;28;20208;-64
2022/03/02 01:35:15;;;;;;;20.63;12.70;;;2.70;99.90;;;;;;5115505;28;20171;-64
2022/03/02 01:37:41;;;;;;;17.83;12.93;;;2.70;99.90;;;;;;5115134;28;20243;-63
2022/03/02 01:40:09;;;;;;;20.20;13.27;;;2.70;99.90;;;;;;5115095;28;20542;-64
2022/03/02 01:42:39;;;;;;;23.10;13.43;;;2.70;99.90;;;;;;5115781;28;20259;-64
2022/03/02 01:45:07;;;;;;;15.33;12.07;;;2.80;99.90;;;;;;5115338;28;20201;-63
2022/03/02 01:47:33;;;;;;;16.60;12.07;;;2.70;99.90;;;;;;5115341;28;20177;-63
2022/03/02 01:49:59;;;;;;;17.40;12.37;;;2.60;99.90;;;;;;5114496;28;20165;-63
2022/03/02 01:52:24;;;;;;;18.80;12.83;;;2.40;99.90;;;;;;5113741;28;20729;-63
2022/03/02 01:54:50;;;;;;;22.33;13.73;;;2.40;99.90;;;;;;5114702;28;20687;-63
2022/03/02 01:57:16;;;;;;;21.67;12.97;;;2.40;99.90;;;;;;5115317;28;20180;-63
2022/03/02 01:59:42;;;;;;;18.80;12.20;;;2.40;99.90;;;;;;5113402;28;20176;-64
2022/03/02 02:02:07;;;;;;;17.90;14.23;;;2.40;99.90;;;;;;5114765;28;20173;-63
2022/03/02 02:04:33;;;;;;;18.47;12.23;;;2.50;99.90;;;;;;5113175;28;20207;-63
2022/03/02 02:06:59;;;;;;;19.10;12.90;;;2.50;99.90;;;;;;5114501;28;20210;-64
2022/03/02 02:09:25;;;;;;;15.87;12.23;;;2.40;99.90;;;;;;5113170;28;20203;-65
2022/03/02 02:11:51;;;;;;;17.87;12.43;;;2.30;99.90;;;;;;5115007;28;20165;-64
2022/03/02 02:14:17;;;;;;;18.40;13.10;;;2.30;99.90;;;;;;5114446;28;20200;-63
2022/03/02 02:16:42;;;;;;;19.90;13.20;;;2.30;99.90;;;;;;5114413;28;20633;-64
2022/03/02 02:19:08;;;;;;;18.53;13.07;;;2.20;99.90;;;;;;5114328;28;20259;-63
2022/03/02 02:21:35;;;;;;;18.50;13.07;;;2.30;99.90;;;;;;5114863;28;20201;-64
2022/03/02 02:24:00;;;;;;;21.20;13.97;;;2.30;99.90;;;;;;5114135;28;20305;-63
2022/03/02 02:26:26;;;;;;;19.00;13.37;;;2.20;99.90;;;;;;5113006;28;20214;-64
2022/03/02 02:28:53;;;;;;;18.30;13.47;;;2.20;99.90;;;;;;5112956;28;20633;-63
2022/03/02 02:31:19;;;;;;;19.80;13.60;;;2.10;99.90;;;;;;5113959;28;20573;-64
2022/03/02 02:33:45;;;;;;;18.67;13.27;;;2.00;99.90;;;;;;5114058;28;20204;-64
2022/03/02 02:36:11;;;;;;;16.67;12.37;;;2.00;99.90;;;;;;5114112;28;20222;-64
2022/03/02 02:38:37;;;;;;;19.13;12.63;;;2.00;99.90;;;;;;5114012;28;20686;-64
2022/03/02 02:41:03;;;;;;;15.43;12.00;;;2.00;99.90;;;;;;5114275;28;20165;-64
2022/03/02 02:43:29;;;;;;;18.03;13.23;;;2.00;99.90;;;;;;5114150;28;20188;-65
2022/03/02 02:45:55;;;;;;;21.40;12.73;;;2.00;99.90;;;;;;5114738;28;20172;-63
2022/03/02 02:48:21;;;;;;;19.37;14.00;;;1.90;99.90;;;;;;5114316;28;20175;-64
2022/03/02 02:50:47;;;;;;;19.37;13.30;;;1.80;99.90;;;;;;5114047;28;20175;-64
2022/03/02 02:53:13;;;;;;;18.97;13.53;;;1.90;99.90;;;;;;5113913;28;20552;-64
2022/03/02 02:55:41;;;;;;;19.33;12.93;;;1.90;99.90;;;;;;5113865;28;20172;-63
2022/03/02 02:58:07;;;;;;;21.20;13.30;;;1.90;99.90;;;;;;5114149;28;20195;-64
2022/03/02 03:00:38;;;;;;;21.70;13.87;;;2.00;99.90;;;;;;5114965;28;20191;-64
2022/03/02 03:03:04;;;;;;;20.17;14.03;;;2.00;99.90;;;;;;5117272;28;20688;-64
2022/03/02 03:05:32;;;;;;;22.87;14.63;;;1.90;99.90;;;;;;5118185;28;20180;-64
2022/03/02 03:08:05;;;;;;;18.97;13.80;;;1.80;99.90;;;;;;5118369;28;20225;-64
2022/03/02 03:10:31;;;;;;;19.47;13.67;;;1.90;99.90;;;;;;5116776;28;20180;-64
2022/03/02 03:12:57;;;;;;;19.33;12.97;;;1.90;99.90;;;;;;5118246;28;20291;-64
2022/03/02 03:15:23;;;;;;;23.23;13.70;;;1.80;99.90;;;;;;5118098;28;20208;-64
2022/03/02 03:17:50;;;;;;;19.27;12.93;;;1.80;99.90;;;;;;5118985;28;20587;-64
2022/03/02 03:20:20;;;;;;;17.30;12.60;;;1.90;99.90;;;;;;5118062;28;20180;-64
2022/03/02 03:22:47;;;;;;;19.27;13.53;;;1.90;99.90;;;;;;5117796;28;20175;-63
2022/03/02 03:25:13;;;;;;;22.70;13.83;;;2.00;99.90;;;;;;5117999;28;20173;-63
2022/03/02 03:27:42;;;;;;;17.90;13.60;;;2.00;99.90;;;;;;5117688;28;20207;-63
2022/03/02 03:30:09;;;;;;;18.27;13.33;;;1.90;99.90;;;;;;5117536;28;20173;-64
2022/03/02 03:32:35;;;;;;;19.10;13.23;;;1.90;99.90;;;;;;5116070;28;20200;-63
2022/03/02 03:35:02;;;;;;;21.97;14.27;;;1.90;99.90;;;;;;5116092;28;20189;-63
2022/03/02 03:37:28;;;;;;;17.50;12.43;;;1.80;99.90;;;;;;5117467;28;20160;-63
2022/03/02 03:39:54;;;;;;;21.30;14.00;;;1.80;99.90;;;;;;5117424;28;20165;-64
2022/03/02 03:42:20;;;;;;;18.37;13.43;;;1.70;99.90;;;;;;5117343;28;20195;-64
2022/03/02 03:44:45;;;;;;;17.90;12.97;;;1.70;99.90;;;;;;5117536;28;20192;-64
2022/03/02 03:47:11;;;;;;;20.37;13.53;;;1.70;99.90;;;;;;5118219;28;20176;-63
2022/03/02 03:49:37;;;;;;;18.87;14.17;;;1.70;99.90;;;;;;5117401;28;20251;-63
2022/03/02 03:52:03;;;;;;;20.60;14.57;;;1.60;99.90;;;;;;5117188;28;20593;-63
2022/03/02 03:54:29;;;;;;;18.97;13.17;;;1.60;99.90;;;;;;5117564;28;20205;-63
2022/03/02 03:56:55;;;;;;;20.30;13.33;;;1.60;99.90;;;;;;5117402;28;20594;-63
2022/03/02 03:59:20;;;;;;;19.13;12.70;;;1.60;99.90;;;;;;5116974;28;20644;-64
2022/03/02 04:01:46;;;;;;;19.47;14.27;;;1.70;99.90;;;;;;5116888;28;20173;-63
2022/03/02 04:04:12;;;;;;;16.60;12.80;;;1.70;99.90;;;;;;5116965;28;20540;-63
2022/03/02 04:06:38;;;;;;;21.77;13.97;;;1.70;99.90;;;;;;5117103;28;20504;-64
2022/03/02 04:09:04;;;;;;;20.67;14.00;;;1.70;99.90;;;;;;5117356;28;20179;-63
2022/03/02 04:11:31;;;;;;;17.50;13.70;;;1.70;99.90;;;;;;5116853;28;20226;-64
2022/03/02 04:13:57;;;;;;;19.13;12.97;;;1.60;99.90;;;;;;5115365;28;20672;-63
2022/03/02 04:16:23;;;;;;;20.77;14.10;;;1.60;99.90;;;;;;5116737;28;20175;-64
2022/03/02 04:18:49;;;;;;;20.47;13.60;;;1.60;99.90;;;;;;5116625;28;20248;-64
2022/03/02 04:21:15;;;;;;;19.30;13.77;;;1.60;99.90;;;;;;5116880;28;20196;-64
2022/03/02 04:23:41;;;;;;;21.43;13.60;;;1.60;99.90;;;;;;5116390;27;20192;-64
2022/03/02 04:26:07;;;;;;;21.10;13.90;;;1.60;99.90;;;;;;5116432;28;20513;-65
2022/03/02 04:28:32;;;;;;;22.13;12.50;;;1.60;99.90;;;;;;5116725;28;20208;-63
2022/03/02 04:30:58;;;;;;;18.33;12.77;;;1.50;99.90;;;;;;5115227;28;20195;-64
2022/03/02 04:33:24;;;;;;;17.27;13.23;;;1.40;99.90;;;;;;5116410;28;20219;-63
2022/03/02 04:35:50;;;;;;;18.97;12.97;;;1.40;99.90;;;;;;5116281;28;20164;-64
2022/03/02 04:38:16;;;;;;;19.50;13.60;;;1.40;99.90;;;;;;5116228;27;20540;-64
2022/03/02 04:40:42;;;;;;;21.77;13.30;;;1.30;99.90;;;;;;5114953;28;20172;-64
2022/03/02 04:43:09;;;;;;;17.60;12.97;;;1.30;99.90;;;;;;5116085;28;20275;-63
2022/03/02 04:45:34;;;;;;;18.43;12.97;;;1.30;99.90;;;;;;5116694;28;20164;-64
2022/03/02 04:48:01;;;;;;;15.87;12.67;;;1.20;99.90;;;;;;5116026;28;20188;-66
2022/03/02 04:50:27;;;;;;;17.90;12.33;;;1.20;99.90;;;;;;5116258;28;20181;-64
2022/03/02 04:52:55;;;;;;;16.37;12.47;;;1.30;99.90;;;;;;5115913;28;20202;-64
2022/03/02 04:55:21;;;;;;;17.47;13.00;;;1.30;99.90;;;;;;5114542;28;20173;-64
2022/03/02 04:57:55;;;;;;;20.00;13.00;;;1.20;99.90;;;;;;5115904;28;20165;-64
2022/03/02 05:00:33;;;;;;;19.80;13.03;;;1.20;99.90;;;;;;5116009;27;20188;-63
2022/03/02 05:03:01;;;;;;;17.53;12.73;;;1.30;99.90;;;;;;5114438;28;20263;-63
2022/03/02 05:05:28;;;;;;;17.27;12.87;;;1.20;99.90;;;;;;5115698;27;20184;-63
2022/03/02 05:07:54;;;;;;;21.37;13.87;;;1.10;99.90;;;;;;5115809;28;20168;-63
2022/03/02 05:10:22;;;;;;;17.97;13.03;;;1.00;99.90;;;;;;5115794;28;20173;-63
2022/03/02 05:12:48;;;;;;;17.77;12.40;;;1.00;99.90;;;;;;5115674;28;20172;-63
2022/03/02 05:15:16;;;;;;;18.17;13.33;;;1.00;99.90;;;;;;5115610;28;20168;-63
2022/03/02 05:17:43;;;;;;;19.53;13.23;;;1.00;99.90;;;;;;5116101;28;20153;-63
2022/03/02 05:20:11;;;;;;;20.53;14.20;;;0.90;99.90;;;;;;5114335;28;20176;-63
2022/03/02 05:22:37;;;;;;;19.30;14.63;;;0.90;99.90;;;;;;5115830;27;20229;-62
2022/03/02 05:25:05;;;;;;;18.70;14.20;;;0.90;99.90;;;;;;5115030;28;20310;-63
2022/03/02 05:27:31;;;;;;;19.80;14.00;;;0.90;99.90;;;;;;5115298;28;20173;-63
2022/03/02 05:29:56;;;;;;;18.80;13.23;;;0.90;99.90;;;;;;5115133;28;20664;-62
2022/03/02 05:32:22;;;;;;;20.10;12.60;;;0.80;99.90;;;;;;5115114;28;20188;-62
2022/03/02 05:34:48;;;;;;;19.40;13.90;;;0.90;99.90;;;;;;5115301;28;20208;-63
2022/03/02 05:37:14;;;;;;;17.30;12.47;;;1.00;99.90;;;;;;5114979;28;20210;-62
2022/03/02 05:39:39;;;;;;;18.63;13.83;;;1.00;99.90;;;;;;5113672;28;20177;-64
2022/03/02 05:42:06;;;;;;;20.43;13.13;;;0.90;99.90;;;;;;5114820;28;20204;-63
2022/03/02 05:44:31;;;;;;;16.63;13.00;;;0.80;99.90;;;;;;5114736;28;20673;-63
2022/03/02 05:46:57;;;;;;;18.90;13.83;;;0.70;99.90;;;;;;5115031;28;20175;-64
2022/03/02 05:49:23;;;;;;;18.73;13.37;;;0.60;99.90;;;;;;5115132;28;20175;-63
2022/03/02 05:51:49;;;;;;;20.03;14.23;;;0.60;99.90;;;;;;5114724;28;20175;-63
2022/03/02 05:54:14;;;;;;;19.17;13.30;;;0.60;99.90;;;;;;5114420;28;20627;-63
2022/03/02 05:56:41;;;;;;;17.03;13.53;;;0.70;99.90;;;;;;5115016;28;20179;-64
2022/03/02 05:59:09;;;;;;;16.87;12.87;;;0.70;99.90;;;;;;5113361;28;20252;-63
2022/03/02 06:01:35;;;;;;;20.53;13.70;;;0.80;99.90;;;;;;5114745;28;20222;-64
2022/03/02 06:04:01;;;;;;;20.57;13.70;;;0.70;99.90;;;;;;5113503;28;20192;-63
2022/03/02 06:06:32;;;;;;;20.70;13.87;;;0.70;99.90;;;;;;5113452;28;20261;-62
2022/03/02 06:09:09;;;;;;;16.57;14.03;;;0.60;99.90;;;;;;5114885;28;20297;-61
2022/03/02 06:11:36;;;;;;;18.30;13.27;;;0.60;99.90;;;;;;5114936;28;20168;-62
2022/03/02 06:14:03;;;;;;;19.67;13.37;;;0.70;99.90;;;;;;5114378;28;20200;-62
2022/03/02 06:16:29;;;;;;;21.77;13.37;;;0.60;99.90;;;;;;5114249;28;20179;-62
2022/03/02 06:18:56;;;;;;;18.90;13.90;;;0.70;99.90;;;;;;5114521;28;20623;-62
2022/03/02 06:21:27;;;;;;;19.00;13.40;;;0.70;99.90;;;;;;5114217;28;20196;-63
2022/03/02 06:23:53;;;;;;;20.33;14.03;;;0.70;99.90;;;;;;5114052;28;20249;-62
2022/03/02 06:26:22;;;;;;;22.43;15.13;;;0.60;99.90;;;;;;5112839;28;20176;-63
2022/03/02 06:28:48;;;;;;;18.90;14.97;;;0.60;99.90;;;;;;5112708;28;20172;-62
2022/03/02 06:31:14;;;;;;;18.60;13.73;;;0.60;99.90;;;;;;5112752;28;20550;-62
2022/03/02 06:33:40;;;;;;;19.63;14.83;;;0.60;99.90;;;;;;5114197;28;20215;-62
2022/03/02 06:36:06;;;;;;;19.47;14.87;;;0.50;99.90;;;;;;5113581;28;20737;-62
2022/03/02 06:38:32;;;;;;;18.47;14.07;;;0.50;99.90;;;;;;5112712;28;20180;-61
2022/03/02 06:41:03;;;;;;;17.40;13.30;;;0.50;99.90;;;;;;5114439;28;20538;-62
2022/03/02 06:43:38;;;;;;;20.67;14.47;;;0.50;99.90;;;;;;5113846;28;20189;-62
2022/03/02 06:46:11;;;;;;;18.73;14.40;;;0.40;99.90;;;;;;5112786;28;20168;-63
2022/03/02 06:48:55;;;;;;;20.83;14.10;;;0.40;99.90;;;;;;5114236;28;20511;-61
2022/03/02 06:51:23;;;;;;;19.40;13.73;;;0.30;99.90;;;;;;5114213;28;20519;-63
2022/03/02 06:53:50;;;;;;;17.17;12.87;;;0.30;99.90;;;;;;5113993;28;20739;-62
2022/03/02 06:56:21;;;;;;;21.53;14.40;;;0.30;99.90;;;;;;5112704;28;20176;-62
2022/03/02 06:58:53;;;;;;;21.77;15.07;;;0.30;99.90;;;;;;5114083;28;20157;-63
2022/03/02 07:01:26;;;;;;;21.30;15.97;;;0.30;99.90;;;;;;5113986;28;20173;-62
2022/03/02 07:03:57;;;;;;;18.60;14.63;;;0.40;99.90;;;;;;5114311;28;20189;-62
2022/03/02 07:06:25;;;;;;;21.63;14.03;;;0.50;99.90;;;;;;5114262;28;20156;-62
2022/03/02 07:08:51;;;;;;;18.07;14.37;;;0.60;99.90;;;;;;5114046;28;20255;-62
2022/03/02 07:11:17;;;;;;;20.43;14.43;;;0.60;99.90;;;;;;5114595;28;20168;-62
2022/03/02 07:13:47;;;;;;;18.37;13.10;;;0.70;99.90;;;;;;5113959;28;20204;-62
2022/03/02 07:16:14;;;;;;;19.30;14.43;;;0.90;99.90;;;;;;5113999;28;20164;-63
2022/03/02 07:18:41;;;;;;;20.37;14.53;;;1.00;99.90;;;;;;5113690;28;20169;-62
2022/03/02 07:21:21;;;;;;;26.93;15.73;;;1.10;99.90;;;;;;5113847;28;20690;-62
2022/03/02 07:23:54;;;;;;;45.17;17.37;;;1.30;99.90;;;;;;5112243;28;20196;-62
2022/03/02 07:26:22;;;;;;;40.23;16.73;;;1.50;99.90;;;;;;5113846;28;20689;-62
2022/03/02 07:28:49;;;;;;;37.00;14.67;;;1.60;99.90;;;;;;5112254;28;20181;-62
2022/03/02 07:31:16;;;;;;;24.77;14.23;;;1.70;99.90;;;;;;5113490;28;20188;-62
2022/03/02 07:33:43;;;;;;;21.80;13.83;;;1.80;99.90;;;;;;5113527;28;20204;-62
2022/03/02 07:36:10;;;;;;;21.47;14.23;;;2.00;99.90;;;;;;5113958;28;20176;-62
2022/03/02 07:38:37;;;;;;;19.77;14.57;;;2.10;99.90;;;;;;5112123;28;20541;-62
2022/03/02 07:41:10;;;;;;;18.93;14.23;;;2.30;99.90;;;;;;5112163;28;20176;-62
2022/03/02 07:43:37;;;;;;;19.87;14.00;;;2.50;99.90;;;;;;5113560;28;20200;-62
2022/03/02 07:46:09;;;;;;;21.73;14.17;;;2.80;99.90;;;;;;5113766;28;20176;-62
2022/03/02 07:48:35;;;;;;;19.00;13.30;;;3.50;99.90;;;;;;5117511;28;20161;-62
2022/03/02 07:51:07;;;;;;;18.37;13.43;;;4.80;99.90;;;;;;5117868;28;20633;-62
2022/03/02 07:53:55;;;;;;;17.30;11.97;;;6.20;99.90;;;;;;5117127;28;20541;-62
2022/03/02 07:56:22;;;;;;;17.10;11.70;;;7.80;99.90;;;;;;5115775;28;20625;-62
2022/03/02 07:58:48;;;;;;;15.53;11.30;;;8.90;99.90;;;;;;5116979;28;20183;-62
2022/03/02 08:01:18;;;;;;;17.60;11.90;;;9.90;99.90;;;;;;5115580;28;20173;-62
2022/03/02 08:03:44;;;;;;;19.93;13.17;;;10.20;99.90;;;;;;5116794;28;20184;-63
2022/03/02 08:06:11;;;;;;;19.10;11.77;;;9.70;99.90;;;;;;5115564;28;20591;-63
2022/03/02 08:08:38;;;;;;;20.00;12.57;;;8.90;99.90;;;;;;5116790;28;20539;-62
2022/03/02 08:11:05;;;;;;;17.93;13.10;;;8.30;99.90;;;;;;5116989;28;20179;-62
2022/03/02 08:13:33;;;;;;;20.00;12.17;;;7.70;99.90;;;;;;5116543;28;20257;-63
2022/03/02 08:15:59;;;;;;;22.40;13.83;;;7.20;99.90;;;;;;5116934;28;20175;-63
2022/03/02 08:18:25;;;;;;;15.57;11.80;;;6.90;99.90;;;;;;5116572;27;20172;-62
2022/03/02 08:20:52;;;;;;;19.07;13.73;;;6.70;99.90;;;;;;5117080;28;20562;-63
2022/03/02 08:23:20;;;;;;;21.23;14.03;;;6.50;99.90;;;;;;5116444;28;20607;-63
2022/03/02 08:25:50;;;;;;;19.43;13.30;;;6.30;99.90;;;;;;5116720;28;20176;-62
2022/03/02 08:28:17;;;;;;;21.87;13.33;;;6.80;99.90;;;;;;5116601;28;20667;-62
2022/03/02 08:30:53;;;;;;;18.70;12.63;;;8.10;99.90;;;;;;5116162;28;20180;-63
2022/03/02 08:33:26;;;;;;;18.40;12.32;;;9.20;99.90;;;;;;5116439;27;20211;-63
2022/03/02 08:35:53;;;;;;;15.85;11.85;;;10.20;99.90;;;;;;5116563;28;20157;-63
2022/03/02 08:38:19;;;;;;;17.80;11.40;;;12.30;99.90;;;;;;5116506;28;20156;-63
2022/03/02 08:40:45;;;;;;;18.40;11.07;;;13.40;99.90;;;;;;5116150;28;20172;-63
2022/03/02 08:43:15;;;;;;;15.60;11.13;;;13.50;99.90;;;;;;5116087;28;20195;-63
2022/03/02 08:45:45;;;;;;;18.00;11.18;;;13.40;99.90;;;;;;5116621;28;20169;-63
2022/03/02 08:48:16;;;;;;;14.70;11.80;;;13.40;99.90;;;;;;5115989;27;20173;-63
2022/03/02 08:50:43;;;;;;;18.50;11.50;;;13.50;99.90;;;;;;5116270;27;20636;-63
2022/03/02 08:53:13;;;;;;;15.13;10.38;;;13.70;99.90;;;;;;5116033;27;20207;-63
2022/03/02 08:55:39;;;;;;;15.90;11.18;;;13.90;99.90;;;;;;5115901;28;20157;-68
2022/03/02 08:58:05;;;;;;;19.17;11.73;;;13.60;99.90;;;;;;5114255;28;20180;-63
2022/03/02 09:00:32;;;;;;;17.55;11.88;;;13.50;99.90;;;;;;5115440;28;20222;-61
2022/03/02 09:03:01;;;;;;;16.75;11.18;;;13.50;99.90;;;;;;5114674;28;20508;-63
2022/03/02 09:05:28;;;;;;;17.85;10.95;;;13.60;99.90;;;;;;5115617;28;20207;-64
2022/03/02 09:07:54;;;;;;;17.20;10.63;;;13.60;99.90;;;;;;5114425;28;20168;-61
2022/03/02 09:10:20;;;;;;;13.98;11.00;;;13.70;99.90;;;;;;5116125;28;20179;-60
2022/03/02 09:12:46;;;;;;;15.52;11.05;;;14.10;99.90;;;;;;5115652;28;20180;-61
2022/03/02 09:15:12;;;;;;;14.25;11.25;;;14.10;99.90;;;;;;5115790;28;20177;-61
2022/03/02 09:17:38;;;;;;;13.73;10.57;;;14.00;99.90;;;;;;5115373;28;20202;-63
2022/03/02 09:20:06;;;;;;;15.40;11.10;;;13.50;99.90;;;;;;5115652;28;20180;-63
2022/03/02 09:22:35;;;;;;;14.48;10.57;;;13.20;99.90;;;;;;5115358;28;20736;-63
2022/03/02 09:25:01;;;;;;;15.02;11.77;;;12.80;99.90;;;;;;5115213;28;20212;-63
2022/03/02 09:27:30;;;;;;;15.98;11.55;;;12.30;99.90;;;;;;5114010;28;20179;-63
2022/03/02 09:30:02;;;;;;;13.95;10.93;;;11.90;99.90;;;;;;5115176;28;20172;-63
2022/03/02 09:32:31;;;;;;;15.63;11.93;;;11.30;99.90;;;;;;5115020;28;20335;-64
2022/03/02 09:34:57;;;;;;;19.67;12.60;;;11.00;99.90;;;;;;5114975;28;20570;-63
2022/03/02 09:37:25;;;;;;;17.55;12.18;;;10.60;99.90;;;;;;5115096;27;20175;-63
2022/03/02 09:39:51;;;;;;;17.40;11.93;;;10.30;99.90;;;;;;5113702;28;20180;-63
2022/03/02 09:42:31;;;;;;;14.32;11.77;;;10.10;99.90;;;;;;5115190;28;20200;-63
2022/03/02 09:45:06;;;;;;;16.80;11.68;;;9.90;99.90;;;;;;5114830;28;20196;-62
2022/03/02 09:47:42;;;;;;;21.25;10.77;;;9.70;99.90;;;;;;5114897;28;20175;-63
2022/03/02 09:50:10;;;;;;;16.00;11.52;;;9.80;99.90;;;;;;5115135;28;20239;-65
2022/03/02 09:52:39;;;;;;;15.23;11.38;;;9.70;99.90;;;;;;5114735;28;20209;-64
2022/03/02 09:55:10;;;;;;;17.10;10.88;;;9.80;99.90;;;;;;5114899;28;20240;-64
2022/03/02 09:57:42;;;;;;;15.55;10.48;;;9.70;99.90;;;;;;5114905;28;20157;-64
2022/03/02 10:00:09;;;;;;;13.17;9.87;;;9.80;99.90;;;;;;5114612;28;20503;-64
2022/03/02 10:02:41;;;;;;;14.07;9.83;;;9.80;99.90;;;;;;5114630;28;20176;-64
2022/03/02 10:05:20;;;;;;;17.33;9.97;;;9.90;99.90;;;;;;5114455;28;20669;-64
2022/03/02 10:07:55;;;;;;;13.60;8.80;;;9.90;99.90;;;;;;5114527;28;20168;-63
2022/03/02 10:10:24;;;;;;;12.33;9.17;;;9.90;99.90;;;;;;5113832;28;20172;-65
2022/03/02 10:13:01;;;;;;;17.60;10.17;;;10.00;99.90;;;;;;5114584;28;20538;-70
2022/03/02 10:15:30;;;;;;;14.27;9.18;;;10.00;99.90;;;;;;5114510;28;20149;-67
2022/03/02 10:17:59;;;;;;;14.03;9.43;;;10.00;99.90;;;;;;5114646;28;20176;-71
2022/03/02 10:20:27;;;;;;;13.37;8.97;;;10.20;99.90;;;;;;5114458;28;20171;-63
2022/03/02 10:23:18;;;;;;;11.63;8.43;;;10.20;99.90;;;;;;5114114;28;20160;-64
2022/03/02 10:25:59;;;;;;;11.05;8.02;;;10.40;99.90;;;;;;5114526;28;20238;-64
2022/03/02 10:28:42;;;;;;;14.73;9.00;;;10.50;99.90;;;;;;5114161;28;20617;-63
2022/03/02 10:31:29;;;;;;;11.65;8.52;;;10.50;99.90;;;;;;5112960;28;20195;-63
2022/03/02 10:34:00;;;;;;;12.47;9.27;;;10.50;99.90;;;;;;5113924;28;20215;-64
2022/03/02 10:36:29;;;;;;;10.93;8.70;;;10.50;99.90;;;;;;5113952;28;20172;-63
2022/03/02 10:38:57;;;;;;;15.77;8.70;;;10.50;99.90;;;;;;5114462;28;20173;-63
2022/03/02 10:41:24;;;;;;;11.38;8.52;;;10.50;99.90;;;;;;5113880;28;20633;-63
2022/03/02 10:43:59;;;;;;;11.23;8.73;;;10.60;99.90;;;;;;5113978;28;20195;-62
2022/03/02 10:46:26;;;;;;;12.82;9.13;;;10.70;99.90;;;;;;5114733;28;20521;-63
2022/03/02 10:49:19;;;;;;;10.63;8.23;;;10.70;99.90;;;;;;5114083;28;20175;-63
2022/03/02 10:51:45;;;;;;;14.15;9.98;;;10.90;99.90;;;;;;5112059;28;20648;-63
2022/03/02 10:54:20;;;;;;;11.25;8.75;;;11.00;99.90;;;;;;5113738;28;20204;-63
2022/03/02 10:56:51;;;;;;;11.15;8.35;;;11.20;99.90;;;;;;5114071;28;20156;-64
2022/03/02 10:59:21;;;;;;;11.55;9.18;;;11.30;99.90;;;;;;5114010;28;20187;-63
2022/03/02 11:01:52;;;;;;;11.95;8.32;;;11.50;99.90;;;;;;5114055;28;20184;-63
2022/03/02 11:04:22;;;;;;;10.35;8.20;;;11.60;99.90;;;;;;5113846;28;20216;-64
2022/03/02 11:06:48;;;;;;;12.43;9.07;;;11.60;99.90;;;;;;5113719;28;20181;-63
2022/03/02 11:09:16;;;;;;;12.27;8.82;;;11.90;99.90;;;;;;5113748;28;20221;-64
2022/03/02 11:11:43;;;;;;;11.73;8.93;;;12.00;99.90;;;;;;5113940;28;20256;-63
2022/03/02 11:14:09;;;;;;;13.80;8.85;;;12.10;99.90;;;;;;5113512;28;20253;-63
2022/03/02 11:16:36;;;;;;;12.30;8.77;;;12.30;99.90;;;;;;5112575;28;20200;-63
2022/03/02 11:19:13;;;;;;;12.38;8.77;;;12.40;99.90;;;;;;5113671;28;20176;-63
2022/03/02 11:21:41;;;;;;;12.93;8.75;;;12.70;99.90;;;;;;5113869;28;20168;-63
2022/03/02 11:24:09;;;;;;;10.93;8.65;;;12.60;99.90;;;;;;5118138;28;20196;-64
2022/03/02 11:26:39;;;;;;;11.10;8.45;;;12.70;99.00;;;;;;5117769;28;20260;-63
2022/03/02 11:29:13;;;;;;;11.38;8.63;;;13.00;99.90;;;;;;5117568;28;20237;-64
2022/03/02 11:31:41;;;;;;;10.25;8.23;;;13.10;98.40;;;;;;5117552;28;20558;-64
2022/03/02 11:34:10;;;;;;;14.45;9.02;;;13.30;99.80;;;;;;5117592;28;20199;-63
2022/03/02 11:36:37;;;;;;;9.88;8.23;;;13.30;98.50;;;;;;5117420;28;20169;-63
2022/03/02 11:39:05;;;;;;;10.75;8.73;;;13.50;99.90;;;;;;5117351;28;20172;-63
2022/03/02 11:41:36;;;;;;;11.00;8.57;;;13.80;98.90;;;;;;5117573;28;20193;-63
2022/03/02 11:44:33;;;;;;;13.98;8.68;;;13.90;98.60;;;;;;5115936;28;20670;-63
2022/03/02 11:47:11;;;;;;;11.80;8.65;;;14.20;97.20;;;;;;5117627;28;20205;-63
2022/03/02 11:49:59;;;;;;;12.60;9.10;;;14.10;97.50;;;;;;5117663;28;20263;-63
2022/03/02 11:52:30;;;;;;;11.75;9.15;;;14.20;95.00;;;;;;5117456;28;20191;-63
2022/03/02 11:54:58;;;;;;;12.95;9.38;;;14.10;95.20;;;;;;5117214;28;20567;-64
2022/03/02 11:57:26;;;;;;;9.95;8.27;;;13.90;98.00;;;;;;5117050;28;20176;-63
2022/03/02 12:00:28;;;;;;;11.30;8.88;;;14.00;97.10;;;;;;5116853;28;20649;-63
2022/03/02 12:03:01;;;;;;;12.95;8.70;;;14.40;97.40;;;;;;5057435;28;20173;-63
2022/03/02 12:05:32;;;;;;;14.13;8.88;;;14.60;96.20;;;;;;5110478;28;20321;-64
2022/03/02 12:08:10;;;;;;;11.63;9.07;;;14.80;95.60;;;;;;5115567;28;20172;-63
2022/03/02 12:10:42;;;;;;;10.80;8.93;;;14.50;94.10;;;;;;5117139;28;20282;-64
2022/03/02 12:13:15;;;;;;;12.18;8.98;;;14.50;95.90;;;;;;5116863;28;20291;-63
2022/03/02 12:15:47;;;;;;;13.88;9.82;;;14.60;94.40;;;;;;5116832;28;20166;-63
2022/03/02 12:18:15;;;;;;;12.57;9.07;;;14.70;96.70;;;;;;5116725;28;20543;-63
2022/03/02 12:20:46;;;;;;;13.20;9.15;;;15.20;97.70;;;;;;5116596;28;20172;-64
2022/03/02 12:23:12;;;;;;;13.80;9.30;;;15.30;98.30;;;;;;5115210;28;20200;-64
2022/03/02 12:25:45;;;;;;;13.88;8.82;;;15.40;97.20;;;;;;5116772;28;20169;-63
2022/03/02 12:28:16;;;;;;;13.48;9.25;;;15.50;97.80;;;;;;5116742;28;20523;-63
2022/03/02 12:30:42;;;;;;;15.57;10.48;;;15.60;97.10;;;;;;5115021;28;20183;-64
2022/03/02 12:33:08;;;;;;;12.00;8.95;;;15.80;96.90;;;;;;5115552;28;20222;-63
2022/03/02 12:35:35;;;;;;;12.05;9.25;;;15.90;96.70;;;;;;5116304;28;20164;-63
2022/03/02 12:38:04;;;;;;;12.40;8.75;;;16.20;96.60;;;;;;5115046;28;20173;-63
2022/03/02 12:40:36;;;;;;;11.90;9.27;;;16.10;96.60;;;;;;5116439;28;20633;-64